Time;durP1;ratioP1;P1;durP2;ratioP2;P2;SDS_P1;SDS_P2;PMS_P1;PMS_P2;Temp;Humidity;BMP_temperature;BMP_pressure;BME280_temperature;BME280_humidity;BME280_pressure;Samples;Min_cycle;Max_cycle;Signal;HPM_P1;HPM_P2
2022/02/18 00:00:49;;;;;;;4.80;3.58;;;;;;;7.68;59.14;92701.81;5046128;28;20414;-40
2022/02/18 00:03:15;;;;;;;8.50;4.28;;;;;;;7.76;58.61;92688.81;5045890;28;20051;-40
2022/02/18 00:05:41;;;;;;;7.55;4.20;;;;;;;7.77;58.68;92701.28;5046275;28;20029;-40
2022/02/18 00:08:07;;;;;;;10.25;5.30;;;;;;;7.86;58.33;92700.72;5046512;28;20097;-40
2022/02/18 00:10:33;;;;;;;4.82;3.75;;;;;;;7.86;58.31;92695.94;5048542;28;20600;-40
2022/02/18 00:12:58;;;;;;;15.13;4.65;;;;;;;7.89;58.20;92702.38;5049666;28;20025;-40
2022/02/18 00:15:24;;;;;;;9.57;4.63;;;;;;;7.94;58.14;92709.69;5049624;28;20077;-40
2022/02/18 00:17:50;;;;;;;8.13;4.65;;;;;;;7.94;58.20;92712.44;5049600;28;20482;-40
2022/02/18 00:20:16;;;;;;;8.07;4.80;;;;;;;7.96;57.58;92718.13;5049472;28;20033;-40
2022/02/18 00:22:41;;;;;;;7.50;3.65;;;;;;;7.95;57.54;92722.19;5049839;28;20033;-40
2022/02/18 00:25:08;;;;;;;7.97;3.92;;;;;;;7.98;57.60;92724.56;5049515;28;20056;-38
2022/02/18 00:27:35;;;;;;;9.18;4.35;;;;;;;8.01;57.53;92728.94;5049627;28;20064;-39
2022/02/18 00:30:03;;;;;;;6.18;4.22;;;;;;;8.00;57.55;92721.25;5049507;28;20463;-37
2022/02/18 00:32:28;;;;;;;7.40;4.32;;;;;;;8.03;57.14;92726.38;5048610;28;20157;-40
2022/02/18 00:34:53;;;;;;;5.63;3.95;;;;;;;8.08;57.01;92728.22;5049594;28;20511;-40
2022/02/18 00:37:20;;;;;;;7.75;4.15;;;;;;;8.15;56.84;92721.25;5049583;28;20166;-40
2022/02/18 00:39:45;;;;;;;4.28;3.88;;;;;;;8.20;56.49;92725.84;5049488;28;20057;-39
2022/02/18 00:42:10;;;;;;;11.45;6.43;;;;;;;8.05;57.62;92720.34;5049463;28;20089;-40
2022/02/18 00:44:36;;;;;;;8.98;5.82;;;;;;;7.99;57.72;92725.28;5049154;28;20025;-40
2022/02/18 00:47:01;;;;;;;9.75;5.55;;;;;;;7.94;57.48;92724.19;5048969;28;20078;-40
2022/02/18 00:49:27;;;;;;;7.05;4.65;;;;;;;7.83;58.45;92723.81;5049262;28;20025;-37
2022/02/18 00:51:52;;;;;;;6.30;4.78;;;;;;;7.69;59.07;92739.00;5049302;28;20040;-39
2022/02/18 00:54:18;;;;;;;8.98;6.50;;;;;;;7.80;58.81;92755.13;5048733;28;20029;-40
2022/02/18 00:56:44;;;;;;;7.47;3.90;;;;;;;7.81;58.16;92753.84;5048834;28;20049;-39
2022/02/18 00:59:10;;;;;;;5.63;2.83;;;;;;;7.84;57.04;92756.22;5048185;28;20029;-39
2022/02/18 01:01:35;;;;;;;3.80;2.58;;;;;;;7.87;57.51;92781.88;5048276;28;20032;-40
2022/02/18 01:04:01;;;;;;;5.55;1.95;;;;;;;7.92;56.83;92778.22;5049148;28;20028;-40
2022/02/18 01:06:27;;;;;;;3.28;2.10;;;;;;;7.75;56.28;92775.28;5049086;28;20033;-40
2022/02/18 01:08:53;;;;;;;2.47;2.03;;;;;;;7.80;57.06;92790.84;5048971;28;20512;-39
2022/02/18 01:11:19;;;;;;;3.22;1.60;;;;;;;7.79;56.66;92786.63;5049112;28;20100;-40
2022/02/18 01:13:45;;;;;;;10.10;2.13;;;;;;;7.76;57.43;92785.72;5049076;28;20025;-40
2022/02/18 01:16:11;;;;;;;3.70;1.55;;;;;;;7.82;56.38;92793.81;5048956;28;20402;-40
2022/02/18 01:18:36;;;;;;;2.72;1.73;;;;;;;7.69;56.99;92777.47;5048648;28;20025;-40
2022/02/18 01:21:02;;;;;;;3.95;1.50;;;;;;;7.63;57.55;92764.63;5048402;28;20107;-40
2022/02/18 01:23:28;;;;;;;2.33;1.40;;;;;;;7.61;57.39;92756.19;5048629;28;20103;-40
2022/02/18 01:25:53;;;;;;;6.25;1.60;;;;;;;7.64;57.25;92762.63;5048331;28;20029;-39
2022/02/18 01:28:18;;;;;;;3.75;1.35;;;;;;;7.46;57.13;92752.66;5047742;28;20033;-39
2022/02/18 01:30:44;;;;;;;1.95;1.08;;;;;;;7.49;57.71;92771.53;5048734;28;20395;-39
2022/02/18 01:33:10;;;;;;;2.15;1.00;;;;;;;7.47;57.39;92771.34;5048372;28;20486;-39
2022/02/18 01:35:35;;;;;;;3.15;1.15;;;;;;;7.42;58.06;92783.25;5048625;28;20169;-40
2022/02/18 01:38:02;;;;;;;1.13;0.90;;;;;;;7.42;58.10;92788.00;5048610;28;20024;-40
2022/02/18 01:40:28;;;;;;;0.80;0.80;;;;;;;7.32;58.56;92781.56;5048339;28;20021;-38
2022/02/18 01:42:53;;;;;;;3.10;1.10;;;;;;;7.27;58.77;92816.16;5048257;28;20036;-39
2022/02/18 01:45:20;;;;;;;1.38;1.27;;;;;;;7.27;58.31;92801.69;5047147;28;20033;-38
2022/02/18 01:47:46;;;;;;;1.98;1.17;;;;;;;7.22;58.70;92805.31;5047939;28;20123;-37
2022/02/18 01:50:11;;;;;;;1.98;0.80;;;;;;;7.35;59.23;92810.66;5046552;28;20120;-38
2022/02/18 01:52:41;;;;;;;2.35;1.52;;;;;;;7.30;59.09;92809.56;5035722;28;20066;-36
2022/02/18 01:55:11;;;;;;;1.10;0.80;;;;;;;7.31;60.22;92808.28;5047519;28;20073;-37
2022/02/18 01:57:45;;;;;;;1.35;1.17;;;;;;;7.30;59.58;92806.06;5048315;28;20099;-37
2022/02/18 02:00:11;;;;;;;2.45;1.00;;;;;;;7.30;59.63;92815.03;5048061;28;20077;-39
2022/02/18 02:02:37;;;;;;;2.45;1.35;;;;;;;7.20;60.54;92814.09;5039240;28;20026;-39
2022/02/18 02:05:05;;;;;;;1.27;0.70;;;;;;;7.15;60.15;92831.44;5038099;28;20032;-40
2022/02/18 02:07:31;;;;;;;4.43;0.87;;;;;;;7.18;60.09;92813.91;5037982;28;20573;-38
2022/02/18 02:09:57;;;;;;;1.90;1.00;;;;;;;7.19;60.42;92818.09;5034623;28;20555;-39
2022/02/18 02:12:22;;;;;;;1.00;0.90;;;;;;;7.24;59.63;92827.47;5027499;28;20108;-40
2022/02/18 02:14:48;;;;;;;1.52;0.73;;;;;;;7.24;60.08;92838.44;5028273;28;20025;-40
2022/02/18 02:17:14;;;;;;;1.15;1.00;;;;;;;7.29;60.15;92843.06;5027818;28;20093;-40
2022/02/18 02:19:39;;;;;;;1.42;0.88;;;;;;;7.26;60.54;92852.34;5027861;28;20078;-39
2022/02/18 02:22:05;;;;;;;1.73;1.02;;;;;;;7.25;61.17;92854.41;5027743;28;20032;-38
2022/02/18 02:24:30;;;;;;;1.30;1.20;;;;;;;7.19;61.14;92859.28;5027852;28;20033;-38
2022/02/18 02:26:56;;;;;;;1.30;1.02;;;;;;;7.13;62.27;92853.22;5027884;28;20025;-38
2022/02/18 02:29:21;;;;;;;4.20;1.40;;;;;;;6.92;62.72;92832.59;5028019;28;20032;-37
2022/02/18 02:31:47;;;;;;;3.45;2.08;;;;;;;6.97;63.28;92848.19;5027535;28;20104;-39
2022/02/18 02:34:14;;;;;;;1.95;1.45;;;;;;;6.97;62.55;92862.66;5027239;28;20507;-37
2022/02/18 02:36:39;;;;;;;2.30;1.25;;;;;;;6.85;60.74;92856.72;5026832;28;20082;-39
2022/02/18 02:39:05;;;;;;;3.03;1.63;;;;;;;6.86;61.88;92860.19;5027789;28;20550;-37
2022/02/18 02:41:31;;;;;;;1.63;1.40;;;;;;;6.86;61.00;92860.19;5027911;28;20048;-38
2022/02/18 02:43:56;;;;;;;1.10;1.10;;;;;;;6.70;61.54;92873.06;5044895;28;20033;-38
2022/02/18 02:46:22;;;;;;;2.03;1.13;;;;;;;6.59;61.34;92864.38;5047546;28;20040;-39
2022/02/18 02:48:47;;;;;;;3.10;0.90;;;;;;;6.60;61.33;92871.34;5047647;28;20489;-39
2022/02/18 02:51:13;;;;;;;2.20;1.42;;;;;;;6.43;61.17;92877.22;5047179;28;20036;-39
2022/02/18 02:53:40;;;;;;;4.18;1.13;;;;;;;6.35;62.58;92875.69;5047210;28;20017;-38
2022/02/18 02:56:06;;;;;;;0.70;0.70;;;;;;;6.32;63.35;92885.75;5047116;28;20058;-39
2022/02/18 02:58:32;;;;;;;1.08;0.90;;;;;;;6.16;64.58;92906.03;5046961;28;20025;-39
2022/02/18 03:00:57;;;;;;;1.00;0.73;;;;;;;6.09;65.92;92925.88;5046577;28;20412;-39
2022/02/18 03:03:23;;;;;;;1.98;0.88;;;;;;;5.99;67.05;92919.38;5047410;28;20115;-38
2022/02/18 03:05:49;;;;;;;2.05;1.02;;;;;;;5.84;68.12;92930.91;5047305;28;20039;-38
2022/02/18 03:08:14;;;;;;;2.80;1.27;;;;;;;5.75;68.63;92947.75;5047301;28;20417;-38
2022/02/18 03:10:40;;;;;;;1.50;1.00;;;;;;;5.66;69.68;92963.88;5047317;28;20577;-38
2022/02/18 03:13:05;;;;;;;2.03;1.05;;;;;;;5.52;70.05;92957.69;5046987;28;20035;-39
2022/02/18 03:15:30;;;;;;;1.58;0.80;;;;;;;5.44;70.50;92970.53;5047303;28;20032;-39
2022/02/18 03:17:56;;;;;;;3.33;1.05;;;;;;;5.34;71.27;92981.19;5047178;28;20040;-38
2022/02/18 03:20:21;;;;;;;1.35;0.93;;;;;;;5.23;71.54;92988.84;5047176;28;20058;-37
2022/02/18 03:22:47;;;;;;;2.75;0.70;;;;;;;5.17;71.85;92988.22;5045878;28;20086;-39
2022/02/18 03:25:14;;;;;;;2.05;0.80;;;;;;;5.17;71.84;92980.75;5046852;28;20029;-40
2022/02/18 03:27:42;;;;;;;2.63;1.02;;;;;;;5.15;70.96;92990.75;5047067;28;20500;-40
2022/02/18 03:30:09;;;;;;;0.98;0.60;;;;;;;5.15;69.98;92998.97;5047068;28;20108;-40
2022/02/18 03:32:36;;;;;;;2.60;0.77;;;;;;;5.21;69.16;92980.44;5046692;28;20081;-37
2022/02/18 03:35:02;;;;;;;3.50;0.70;;;;;;;5.26;70.33;92985.06;5046927;28;20032;-38
2022/02/18 03:37:28;;;;;;;1.00;0.82;;;;;;;5.02;69.95;92957.91;5045582;28;20025;-38
2022/02/18 03:39:53;;;;;;;0.80;0.80;;;;;;;5.19;67.78;93002.13;5046910;28;20077;-38
2022/02/18 03:42:19;;;;;;;1.52;1.35;;;;;;;5.25;67.26;93006.22;5046812;28;20398;-36
2022/02/18 03:44:44;;;;;;;2.47;0.70;;;;;;;5.27;66.80;92981.81;5046847;28;20637;-37
2022/02/18 03:47:10;;;;;;;1.15;0.80;;;;;;;5.38;66.64;93000.03;5050278;28;20455;-36
2022/02/18 03:49:35;;;;;;;2.33;0.60;;;;;;;5.31;65.18;92995.16;5049931;28;20538;-39
2022/02/18 03:52:01;;;;;;;1.02;0.82;;;;;;;5.32;63.90;93005.59;5049980;28;20033;-37
2022/02/18 03:54:26;;;;;;;0.50;0.50;;;;;;;5.32;63.04;93022.03;5049449;27;20035;-40
2022/02/18 03:56:53;;;;;;;3.33;0.80;;;;;;;5.31;63.03;93025.28;5050191;28;20032;-39
2022/02/18 03:59:19;;;;;;;1.45;0.60;;;;;;;5.39;63.26;93037.09;5049876;28;20057;-37
2022/02/18 04:01:44;;;;;;;1.50;0.88;;;;;;;5.44;63.41;93038.97;5050122;28;20112;-37
2022/02/18 04:04:09;;;;;;;2.88;1.60;;;;;;;5.55;62.58;93027.06;5048887;28;20482;-39
2022/02/18 04:06:35;;;;;;;3.20;1.70;;;;;;;5.56;62.73;93034.78;5049676;28;20033;-38
2022/02/18 04:09:00;;;;;;;1.02;1.00;;;;;;;5.58;62.86;93042.47;5049717;28;20537;-39
2022/02/18 04:11:26;;;;;;;2.78;1.13;;;;;;;5.69;63.14;93064.16;5049928;28;20074;-40
2022/02/18 04:13:51;;;;;;;2.50;0.88;;;;;;;5.74;62.26;93068.81;5049731;28;20036;-40
2022/02/18 04:16:17;;;;;;;0.70;0.65;;;;;;;5.76;58.67;93067.00;5049769;28;20032;-39
2022/02/18 04:18:42;;;;;;;2.38;0.90;;;;;;;5.82;56.84;93078.63;5049890;28;20036;-40
2022/02/18 04:21:08;;;;;;;0.30;0.30;;;;;;;5.75;51.57;93084.72;5049504;28;20021;-39
2022/02/18 04:23:33;;;;;;;1.45;1.10;;;;;;;5.72;49.23;93085.75;5049148;28;20033;-40
2022/02/18 04:25:59;;;;;;;0.82;0.50;;;;;;;5.75;50.33;93075.75;5048838;28;20029;-39
2022/02/18 04:28:24;;;;;;;1.30;0.50;;;;;;;5.82;48.24;93067.66;5049434;28;20063;-38
2022/02/18 04:30:50;;;;;;;1.17;0.50;;;;;;;5.90;49.74;93046.59;5049391;28;20054;-38
2022/02/18 04:33:15;;;;;;;0.30;0.30;;;;;;;5.92;49.90;93033.09;5049588;28;20025;-39
2022/02/18 04:35:44;;;;;;;28.88;15.75;;;;;;;6.00;49.05;93063.34;5049343;28;20485;-38
2022/02/18 04:38:10;;;;;;;7.85;3.95;;;;;;;6.04;48.67;93067.22;5046897;28;20101;-40
2022/02/18 04:40:36;;;;;;;3.90;1.40;;;;;;;6.16;49.80;93083.44;5041205;28;20037;-39
2022/02/18 04:43:01;;;;;;;3.33;2.00;;;;;;;6.03;49.03;93076.72;5028085;28;20064;-40
2022/02/18 04:45:26;;;;;;;5.25;3.47;;;;;;;6.24;50.00;93096.00;5029005;28;20061;-38
2022/02/18 04:47:52;;;;;;;9.82;6.43;;;;;;;6.32;49.35;93107.06;5029105;28;20029;-39
2022/02/18 04:50:17;;;;;;;4.35;3.65;;;;;;;6.32;50.98;93116.03;5029430;28;20033;-39
2022/02/18 04:52:43;;;;;;;2.50;1.38;;;;;;;6.23;49.83;93123.94;5029418;28;20029;-40
2022/02/18 04:55:08;;;;;;;1.77;1.48;;;;;;;6.30;50.15;93126.03;5045632;28;20514;-40
2022/02/18 04:57:37;;;;;;;2.53;1.35;;;;;;;6.21;47.61;93134.69;5049237;28;20017;-40
2022/02/18 05:00:04;;;;;;;3.35;1.77;;;;;;;6.29;50.27;93133.53;5048442;28;20042;-40
2022/02/18 05:02:30;;;;;;;3.22;1.60;;;;;;;6.21;50.21;93129.22;5048658;28;20033;-40
2022/02/18 05:04:55;;;;;;;2.72;1.67;;;;;;;6.17;57.13;93128.78;5048803;28;20032;-41
2022/02/18 05:07:21;;;;;;;5.65;2.65;;;;;;;6.02;62.67;93135.53;5048761;28;20025;-40
2022/02/18 05:09:46;;;;;;;7.30;3.78;;;;;;;6.00;64.74;93140.81;5049022;28;20025;-40
2022/02/18 05:12:12;;;;;;;5.28;2.97;;;;;;;5.80;66.01;93124.97;5048988;28;20024;-40
2022/02/18 05:14:37;;;;;;;5.10;3.53;;;;;;;5.78;68.43;93127.47;5049047;28;20490;-40
2022/02/18 05:17:03;;;;;;;6.28;4.18;;;;;;;5.78;69.62;93124.03;5048303;28;20029;-40
2022/02/18 05:19:28;;;;;;;6.00;4.30;;;;;;;5.75;70.57;93131.28;5048336;28;20406;-41
2022/02/18 05:21:54;;;;;;;5.10;4.13;;;;;;;5.57;72.04;93145.78;5048788;28;20413;-41
2022/02/18 05:24:19;;;;;;;6.20;5.32;;;;;;;5.51;72.63;93134.19;5048535;28;20028;-41
2022/02/18 05:26:45;;;;;;;8.27;4.88;;;;;;;5.42;73.43;93133.84;5048701;28;20025;-40
2022/02/18 05:29:10;;;;;;;6.90;5.40;;;;;;;5.46;73.31;93145.25;5048425;28;20048;-40
2022/02/18 05:31:36;;;;;;;8.48;5.70;;;;;;;5.52;72.86;93149.38;5048446;28;20033;-40
2022/02/18 05:34:01;;;;;;;8.93;5.18;;;;;;;5.55;72.62;93164.00;5047357;28;20024;-40
2022/02/18 05:36:27;;;;;;;11.63;5.65;;;;;;;5.47;73.11;93169.34;5048250;28;20025;-40
2022/02/18 05:38:53;;;;;;;8.57;5.97;;;;;;;5.48;73.02;93168.06;5048286;28;20033;-40
2022/02/18 05:41:18;;;;;;;5.80;4.53;;;;;;;5.49;73.07;93177.78;5048554;28;20111;-40
2022/02/18 05:43:44;;;;;;;8.23;5.25;;;;;;;5.45;73.37;93168.41;5048534;28;20463;-40
2022/02/18 05:46:09;;;;;;;6.00;4.25;;;;;;;5.48;73.03;93179.03;5048377;28;20017;-40
2022/02/18 05:48:34;;;;;;;3.47;2.58;;;;;;;5.51;72.39;93188.19;5047195;28;20395;-40
2022/02/18 05:51:05;;;;;;;3.40;2.78;;;;;;;5.42;71.69;93185.84;5048276;28;20021;-40
2022/02/18 05:53:30;;;;;;;6.38;3.40;;;;;;;5.26;71.53;93190.34;5048109;28;20032;-40
2022/02/18 05:55:56;;;;;;;4.18;2.58;;;;;;;5.16;71.72;93186.50;5047989;28;20057;-40
2022/02/18 05:58:21;;;;;;;5.65;2.53;;;;;;;5.03;71.85;93195.41;5048333;28;20044;-40
2022/02/18 06:00:47;;;;;;;4.75;2.78;;;;;;;5.06;71.87;93191.63;5048244;28;20107;-40
2022/02/18 06:03:13;;;;;;;5.90;3.00;;;;;;;4.99;71.67;93192.22;5046749;28;20040;-40
2022/02/18 06:05:40;;;;;;;5.65;3.42;;;;;;;5.01;71.31;93184.22;5048204;28;20032;-40
2022/02/18 06:08:06;;;;;;;7.95;3.88;;;;;;;4.91;71.27;93207.75;5047276;28;20111;-40
2022/02/18 06:10:32;;;;;;;7.63;4.68;;;;;;;5.01;70.63;93208.84;5048189;28;20035;-40
2022/02/18 06:12:57;;;;;;;6.35;2.88;;;;;;;5.10;69.97;93229.63;5048118;28;20550;-40
2022/02/18 06:15:23;;;;;;;4.65;3.75;;;;;;;4.95;70.14;93215.66;5046710;28;20029;-40
2022/02/18 06:17:48;;;;;;;10.95;4.47;;;;;;;4.88;70.32;93225.19;5047974;28;20806;-40
2022/02/18 06:20:14;;;;;;;12.13;5.85;;;;;;;4.97;69.76;93232.28;5047987;28;20055;-40
2022/02/18 06:22:39;;;;;;;9.90;4.57;;;;;;;4.97;69.01;93235.78;5047620;28;20528;-40
2022/02/18 06:25:09;;;;;;;23.30;9.80;;;;;;;4.84;68.67;93237.69;5047892;28;20036;-40
2022/02/18 06:27:34;;;;;;;3.63;2.42;;;;;;;5.01;68.81;93254.63;5046412;28;20489;-37
2022/02/18 06:30:00;;;;;;;12.43;5.18;;;;;;;4.92;69.82;93244.78;5047788;28;20112;-39
2022/02/18 06:32:25;;;;;;;35.95;15.32;;;;;;;4.91;69.50;93250.78;5047467;28;20037;-38
2022/02/18 06:34:52;;;;;;;16.42;8.27;;;;;;;4.87;69.91;93233.94;5047726;28;20077;-40
2022/02/18 06:37:18;;;;;;;16.25;7.72;;;;;;;5.04;69.08;93253.59;5046882;28;20568;-40
2022/02/18 06:39:44;;;;;;;8.00;4.35;;;;;;;5.05;68.81;93253.06;5047196;28;20033;-39
2022/02/18 06:42:09;;;;;;;4.25;3.63;;;;;;;4.91;70.02;93256.25;5047706;28;20465;-38
2022/02/18 06:44:34;;;;;;;5.53;3.53;;;;;;;5.03;69.59;93252.84;5047331;28;20025;-40
2022/02/18 06:47:00;;;;;;;5.97;3.45;;;;;;;5.24;68.84;93250.34;5046728;28;20056;-39
2022/02/18 06:49:26;;;;;;;7.10;3.78;;;;;;;5.33;67.80;93233.50;5046679;28;20032;-39
2022/02/18 06:51:55;;;;;;;5.90;3.53;;;;;;;5.46;67.50;93263.69;5047575;28;20074;-38
2022/02/18 06:54:24;;;;;;;4.57;2.75;;;;;;;5.61;66.73;93258.47;5046809;27;20024;-38
2022/02/18 06:56:50;;;;;;;3.28;2.50;;;;;;;5.74;66.05;93241.38;5045823;28;20063;-39
2022/02/18 06:59:15;;;;;;;5.05;3.05;;;;;;;6.00;64.94;93264.13;5047408;28;20025;-39
2022/02/18 07:01:41;;;;;;;5.25;2.60;;;;;;;5.95;65.26;93273.19;5047139;28;20029;-38
2022/02/18 07:04:08;;;;;;;6.93;3.63;;;;;;;6.01;64.76;93273.81;5046281;28;20112;-39
2022/02/18 07:06:34;;;;;;;7.80;4.65;;;;;;;6.13;64.81;93287.34;5046982;28;20088;-40
2022/02/18 07:09:00;;;;;;;5.47;3.75;;;;;;;6.36;64.14;93285.69;5047283;28;20032;-40
2022/02/18 07:11:25;;;;;;;5.50;3.25;;;;;;;7.07;61.94;93296.56;5045943;28;20033;-39
2022/02/18 07:13:50;;;;;;;3.78;2.08;;;;;;;8.32;58.88;93290.78;5047186;28;20073;-40
2022/02/18 07:16:16;;;;;;;7.28;3.42;;;;;;;9.70;53.56;93297.28;5046759;28;20478;-40
2022/02/18 07:18:42;;;;;;;1.63;1.52;;;;;;;11.31;48.87;93292.69;5040379;28;20045;-41
2022/02/18 07:21:07;;;;;;;3.03;1.73;;;;;;;12.05;46.40;93313.09;5028100;28;20060;-40
2022/02/18 07:23:34;;;;;;;2.53;2.10;;;;;;;12.75;44.04;93304.50;5028336;28;20101;-40
2022/02/18 07:25:59;;;;;;;2.83;1.70;;;;;;;13.04;43.12;93296.47;5027974;28;20048;-40
2022/02/18 07:28:24;;;;;;;2.30;1.85;;;;;;;14.48;40.90;93292.03;5041243;28;20041;-41
2022/02/18 07:43:33;;;;;;;3.13;1.50;;;;;;;17.66;31.78;93276.50;5061840;28;20835;-34
2022/02/18 07:46:00;;;;;;;2.58;1.75;;;;;;;18.08;31.51;93284.09;5061564;28;20044;-34
2022/02/18 07:48:25;;;;;;;2.40;1.67;;;;;;;18.68;30.17;93278.78;5061854;28;20025;-34
2022/02/18 07:50:51;;;;;;;8.25;3.92;;;;;;;19.06;29.50;93272.69;5060995;28;20029;-34
2022/02/18 07:53:16;;;;;;;7.68;3.35;;;;;;;19.41;29.92;93273.44;5060878;28;20123;-34
2022/02/18 07:55:42;;;;;;;4.93;3.10;;;;;;;19.30;29.35;93259.41;5061698;28;20401;-34
2022/02/18 07:58:08;;;;;;;5.50;2.17;;;;;;;19.67;27.75;93285.41;5059505;28;20071;-34
2022/02/18 08:00:34;;;;;;;2.70;1.55;;;;;;;19.41;27.29;93283.88;5061622;28;20056;-34
2022/02/18 08:02:59;;;;;;;2.47;1.60;;;;;;;19.29;27.56;93300.69;5061614;28;20657;-34
2022/02/18 08:05:25;;;;;;;2.70;1.00;;;;;;;18.66;28.24;93292.63;5060049;28;20027;-34
2022/02/18 08:07:50;;;;;;;3.25;1.30;;;;;;;17.89;30.13;93293.34;5061049;28;20478;-33
2022/02/18 08:10:16;;;;;;;3.30;1.30;;;;;;;18.33;29.44;93275.16;5061730;28;20035;-34
2022/02/18 08:12:41;;;;;;;3.85;1.20;;;;;;;18.23;30.05;93289.25;5061450;28;20438;-34
2022/02/18 08:15:07;;;;;;;5.40;2.10;;;;;;;18.53;29.94;93293.97;5061443;28;20454;-34
2022/02/18 08:17:36;;;;;;;5.88;3.42;;;;;;;18.00;29.18;93275.16;5060475;28;20428;-34
2022/02/18 08:20:04;;;;;;;4.18;2.63;;;;;;;18.85;28.53;93286.81;5044946;28;20041;-34
2022/02/18 08:22:29;;;;;;;3.47;2.03;;;;;;;19.10;27.71;93272.94;5051812;28;20107;-34
2022/02/18 08:24:55;;;;;;;3.17;1.98;;;;;;;19.29;27.50;93263.56;5143527;27;20142;-34
2022/02/18 08:27:21;;;;;;;5.22;1.58;;;;;;;19.31;26.83;93277.69;5148504;27;20011;-34
2022/02/18 08:29:46;;;;;;;3.83;1.15;;;;;;;19.85;26.92;93283.69;5062615;27;20063;-34
2022/02/18 08:32:12;;;;;;;3.63;1.70;;;;;;;20.24;26.58;93264.91;5062517;28;20029;-34
2022/02/18 08:34:37;;;;;;;3.65;0.90;;;;;;;20.49;25.41;93274.66;5063272;28;20029;-34
2022/02/18 08:37:03;;;;;;;3.35;1.33;;;;;;;19.82;27.00;93284.16;5062537;28;20531;-34
2022/02/18 08:39:29;;;;;;;3.17;1.30;;;;;;;20.60;25.29;93277.38;5061584;28;20021;-34
2022/02/18 08:41:54;;;;;;;3.45;1.35;;;;;;;19.96;25.87;93279.38;5060685;27;20132;-34
2022/02/18 08:44:20;;;;;;;1.60;0.93;;;;;;;19.95;25.50;93261.81;5048988;28;20029;-34
2022/02/18 08:46:46;;;;;;;2.03;1.20;;;;;;;20.25;25.39;93269.16;5048402;28;20082;-34
2022/02/18 08:49:11;;;;;;;2.40;1.05;;;;;;;19.76;27.05;93259.34;5048245;28;20450;-34
2022/02/18 08:51:38;;;;;;;3.88;1.17;;;;;;;20.37;25.77;93275.44;5046558;28;20512;-34
2022/02/18 08:54:04;;;;;;;3.83;1.00;;;;;;;20.76;24.68;93261.41;5049803;28;20100;-34
2022/02/18 08:56:30;;;;;;;1.75;1.08;;;;;;;20.66;24.90;93265.75;5049824;28;20471;-35
2022/02/18 08:58:56;;;;;;;5.57;1.40;;;;;;;20.51;24.76;93264.25;5048579;28;20390;-34
2022/02/18 09:01:25;;;;;;;5.72;2.28;;;;;;;20.67;25.31;93275.63;5049459;28;20028;-35
2022/02/18 09:03:50;;;;;;;3.72;1.42;;;;;;;20.83;24.13;93276.50;5049714;28;20468;-35
2022/02/18 09:06:16;;;;;;;4.68;1.23;;;;;;;20.54;25.23;93265.81;5049625;28;20032;-34
2022/02/18 09:08:41;;;;;;;4.32;0.93;;;;;;;21.41;23.42;93284.47;5049598;28;20482;-34
2022/02/18 09:11:06;;;;;;;4.68;1.27;;;;;;;20.93;24.18;93266.53;5049497;28;20474;-35
2022/02/18 09:13:32;;;;;;;3.05;1.20;;;;;;;21.33;23.42;93248.25;5049285;28;20033;-35
2022/02/18 09:15:57;;;;;;;4.05;1.02;;;;;;;21.18;23.57;93276.97;5049537;28;20405;-35
2022/02/18 09:18:23;;;;;;;3.90;1.20;;;;;;;21.38;22.79;93278.03;5049455;28;20505;-35
2022/02/18 09:20:48;;;;;;;2.28;0.90;;;;;;;21.42;22.42;93267.00;5049422;28;20021;-34
2022/02/18 09:23:14;;;;;;;3.97;1.80;;;;;;;21.12;23.42;93276.66;5049064;28;20025;-35
2022/02/18 09:25:40;;;;;;;4.50;1.50;;;;;;;21.64;22.94;93265.31;5049364;28;20033;-35
2022/02/18 09:28:06;;;;;;;1.73;0.80;;;;;;;21.22;22.56;93284.88;5049065;28;20393;-34
2022/02/18 09:30:34;;;;;;;4.88;1.52;;;;;;;21.67;22.85;93277.38;5049308;28;20120;-35
2022/02/18 09:33:00;;;;;;;3.50;2.00;;;;;;;22.12;23.02;93283.88;5049159;28;20017;-35
2022/02/18 09:35:26;;;;;;;3.33;1.60;;;;;;;21.01;22.96;93288.69;5048005;28;20113;-35
2022/02/18 09:37:53;;;;;;;1.75;0.93;;;;;;;21.13;22.81;93278.13;5048823;28;20056;-35
2022/02/18 09:40:18;;;;;;;2.38;1.38;;;;;;;21.20;23.22;93251.09;5047342;27;20027;-35
2022/02/18 09:42:44;;;;;;;2.33;1.20;;;;;;;20.54;23.99;93259.47;5048630;28;20037;-34
2022/02/18 09:45:11;;;;;;;3.55;1.48;;;;;;;21.45;23.05;93257.31;5047860;28;20111;-35
2022/02/18 09:47:37;;;;;;;2.50;1.30;;;;;;;21.56;23.14;93276.16;5048773;28;20519;-35
2022/02/18 09:50:03;;;;;;;4.53;1.00;;;;;;;22.18;21.47;93277.81;5047786;28;20108;-35
2022/02/18 09:52:28;;;;;;;2.50;1.00;;;;;;;22.62;20.55;93279.97;5048909;28;20013;-35
2022/02/18 09:54:54;;;;;;;2.08;1.27;;;;;;;22.77;20.98;93275.72;5046329;28;20478;-35
2022/02/18 09:57:20;;;;;;;3.50;1.35;;;;;;;22.62;21.25;93285.59;5048590;28;20488;-35
2022/02/18 09:59:47;;;;;;;3.47;1.50;;;;;;;22.97;21.44;93285.81;5048544;28;20465;-35
2022/02/18 10:02:14;;;;;;;5.07;1.60;;;;;;;22.93;21.35;93270.84;5048812;28;20035;-35
2022/02/18 10:04:39;;;;;;;4.80;2.47;;;;;;;22.92;21.24;93281.34;5048492;28;20021;-35
2022/02/18 10:07:05;;;;;;;2.67;1.90;;;;;;;22.87;21.08;93295.91;5048743;28;20020;-35
2022/02/18 10:09:38;;;;;;;6.18;1.38;;;;;;;21.78;21.62;93282.16;5048689;28;20056;-35
2022/02/18 10:12:04;;;;;;;4.80;2.22;;;;;;;21.51;22.06;93276.56;5048562;28;20061;-35
2022/02/18 10:14:50;;;;;;;4.57;1.45;;;;;;;22.14;21.47;93274.81;5048636;28;20021;-34
2022/02/18 10:17:16;;;;;;;4.32;1.60;;;;;;;22.18;21.37;93258.84;5048786;28;20401;-35
2022/02/18 10:19:54;;;;;;;5.47;2.80;;;;;;;21.80;21.75;93268.19;5048219;28;20029;-35
2022/02/18 10:22:27;;;;;;;4.00;1.60;;;;;;;22.00;21.37;93257.25;5048491;28;20462;-34
2022/02/18 10:24:53;;;;;;;3.60;1.30;;;;;;;21.99;20.58;93270.59;5048087;28;20548;-35
2022/02/18 10:27:23;;;;;;;3.92;1.50;;;;;;;21.22;22.60;93265.22;5048400;28;20500;-34
2022/02/18 10:29:56;;;;;;;3.90;1.98;;;;;;;21.98;21.21;93265.59;5048451;28;20021;-34
2022/02/18 10:32:22;;;;;;;2.28;1.35;;;;;;;22.32;21.24;93253.19;5047790;28;20019;-35
2022/02/18 10:34:51;;;;;;;6.07;1.70;;;;;;;22.50;20.01;93265.31;5047986;28;20029;-35
2022/02/18 10:37:17;;;;;;;6.53;2.63;;;;;;;22.13;19.97;93287.41;5048274;28;20025;-34
2022/02/18 10:39:42;;;;;;;3.75;1.52;;;;;;;21.08;21.30;93282.81;5047784;28;20465;-34
2022/02/18 10:42:08;;;;;;;4.95;2.60;;;;;;;19.51;22.64;93285.22;5047556;28;20029;-34
2022/02/18 10:44:34;;;;;;;3.40;1.77;;;;;;;17.68;24.71;93289.84;5047706;28;20033;-34
2022/02/18 10:47:05;;;;;;;5.60;1.77;;;;;;;17.40;25.55;93285.91;5047801;28;20031;-34
2022/02/18 10:49:38;;;;;;;3.22;1.70;;;;;;;16.62;26.00;93284.09;5047820;28;20025;-34
2022/02/18 10:52:13;;;;;;;5.15;1.77;;;;;;;15.99;27.47;93290.09;5046777;28;20021;-33
2022/02/18 10:54:39;;;;;;;6.25;1.52;;;;;;;16.30;27.05;93290.19;5047684;28;20033;-34
2022/02/18 10:57:17;;;;;;;2.53;1.75;;;;;;;15.57;28.05;93275.91;5047609;28;20024;-34
2022/02/18 10:59:44;;;;;;;3.15;1.40;;;;;;;14.76;28.98;93278.25;5047867;28;20029;-34
2022/02/18 11:02:09;;;;;;;2.70;1.55;;;;;;;14.26;29.31;93279.91;5047922;28;20561;-33
2022/02/18 11:04:35;;;;;;;13.57;4.20;;;;;;;13.87;30.55;93294.84;5046661;28;20061;-33
2022/02/18 11:07:09;;;;;;;2.97;1.65;;;;;;;13.60;31.09;93281.66;5047540;28;20032;-33
2022/02/18 11:09:35;;;;;;;7.82;1.35;;;;;;;13.62;30.52;93273.50;5047471;28;20024;-33
2022/02/18 11:12:07;;;;;;;4.38;1.55;;;;;;;14.92;31.08;93270.38;5047645;28;20013;-33
2022/02/18 11:14:33;;;;;;;3.03;1.33;;;;;;;16.04;28.58;93286.28;5047734;28;20328;-34
2022/02/18 11:16:59;;;;;;;4.13;1.60;;;;;;;16.38;27.23;93279.59;5047426;28;20035;-34
2022/02/18 11:19:24;;;;;;;2.67;1.25;;;;;;;16.20;27.51;93276.28;5047348;28;20021;-33
2022/02/18 11:21:50;;;;;;;1.70;1.48;;;;;;;16.67;26.90;93258.69;5047565;28;20024;-34
2022/02/18 11:24:17;;;;;;;6.22;2.10;;;;;;;17.73;25.15;93274.84;5047663;28;20040;-34
2022/02/18 11:26:44;;;;;;;3.15;1.65;;;;;;;18.52;23.45;93280.56;5047234;28;20413;-34
2022/02/18 11:29:11;;;;;;;3.10;1.40;;;;;;;19.26;22.79;93264.78;5047112;28;20037;-34
2022/02/18 11:31:42;;;;;;;1.73;1.42;;;;;;;20.00;22.54;93269.13;5047416;28;20021;-34
2022/02/18 11:34:32;;;;;;;4.78;1.30;;;;;;;20.04;22.28;93277.03;5045997;28;20025;-34
2022/02/18 11:37:19;;;;;;;4.10;1.20;;;;;;;19.95;22.38;93264.63;5047172;28;20029;-34
2022/02/18 11:40:17;;;;;;;7.20;2.75;;;;;;;19.42;19.87;93271.38;5046741;28;20017;-34
2022/02/18 11:43:11;;;;;;;1.57;0.93;;;;;;;19.40;20.12;93279.66;5022600;28;20127;-34
2022/02/18 11:45:37;;;;;;;8.18;4.00;;;;;;;18.15;20.52;93278.28;5033674;28;20069;-34
2022/02/18 11:48:02;;;;;;;1.83;1.35;;;;;;;18.12;22.03;93284.34;5046959;28;20056;-34